Time;durP1;ratioP1;P1;durP2;ratioP2;P2;SDS_P1;SDS_P2;PMS_P1;PMS_P2;Temp;Humidity;BMP_temperature;BMP_pressure;BME280_temperature;BME280_humidity;BME280_pressure;Samples;Min_cycle;Max_cycle;Signal;HPM_P1;HPM_P2
2022/11/15 00:00:09;;;;;;;47.80;22.80;;;;;;;;;;106777;1307;21832;-76
2022/11/15 00:03:05;;;;;;;46.70;21.10;;;;;;;;;;106725;1309;22150;-76
2022/11/15 00:05:50;;;;;;;42.30;20.80;;;;;;;;;;106756;1310;22040;-76
2022/11/15 00:08:35;;;;;;;40.00;18.80;;;;;;;;;;106763;1309;22115;-76
2022/11/15 00:11:20;;;;;;;39.30;18.80;;;;;;;;;;107078;1300;22040;-76
2022/11/15 00:14:05;;;;;;;42.10;19.10;;;;;;;;;;106762;1298;22840;-76
2022/11/15 00:16:51;;;;;;;45.90;21.10;;;;;;;;;;106753;1307;22058;-76
2022/11/15 00:19:37;;;;;;;47.20;22.60;;;;;;;;;;106740;1303;22115;-76
2022/11/15 00:22:23;;;;;;;52.10;23.90;;;;;;;;;;106723;1307;22820;-76
2022/11/15 00:25:08;;;;;;;53.40;24.30;;;;;;;;;;106938;1302;22037;-76
2022/11/15 00:27:56;;;;;;;50.30;24.00;;;;;;;;;;106688;1309;22074;-76
2022/11/15 00:30:42;;;;;;;51.80;20.20;;;;;;;;;;106685;1309;22089;-76
2022/11/15 00:33:27;;;;;;;51.50;23.10;;;;;;;;;;106662;1309;22782;-76
2022/11/15 00:36:12;;;;;;;42.00;19.60;;;;;;;;;;106718;1309;22165;-76
2022/11/15 00:38:58;;;;;;;40.90;19.80;;;;;;;;;;106689;1309;22910;-76
2022/11/15 00:41:44;;;;;;;39.80;18.50;;;;;;;;;;107012;1302;22054;-76
2022/11/15 00:44:30;;;;;;;39.40;17.90;;;;;;;;;;106672;1309;22045;-76
2022/11/15 00:47:15;;;;;;;41.60;17.80;;;;;;;;;;106974;1301;21982;-76
2022/11/15 00:50:00;;;;;;;39.80;18.10;;;;;;;;;;106712;1309;22705;-76
2022/11/15 00:52:45;;;;;;;29.30;12.90;;;;;;;;;;106986;1291;21956;-76
2022/11/15 00:55:31;;;;;;;33.90;15.10;;;;;;;;;;106682;1309;21683;-75
2022/11/15 00:58:16;;;;;;;34.80;15.70;;;;;;;;;;106713;1309;22141;-76
2022/11/15 01:01:05;;;;;;;26.80;13.60;;;;;;;;;;106733;1309;22249;-76
2022/11/15 01:03:51;;;;;;;30.70;15.00;;;;;;;;;;106926;1296;22804;-76
2022/11/15 01:06:37;;;;;;;32.90;15.70;;;;;;;;;;106753;1309;22752;-75
2022/11/15 01:09:23;;;;;;;31.30;14.40;;;;;;;;;;106733;1309;22079;-76
2022/11/15 01:12:08;;;;;;;27.50;13.30;;;;;;;;;;106745;1309;22098;-76
2022/11/15 01:14:54;;;;;;;27.40;13.70;;;;;;;;;;106818;1309;22063;-76
2022/11/15 01:17:40;;;;;;;32.00;16.00;;;;;;;;;;106924;1302;22298;-76
2022/11/15 01:20:26;;;;;;;27.40;14.30;;;;;;;;;;106926;1302;22101;-76
2022/11/15 01:23:13;;;;;;;30.50;15.00;;;;;;;;;;106696;1309;22120;-76
2022/11/15 01:26:01;;;;;;;32.50;15.70;;;;;;;;;;106666;1310;22136;-75
2022/11/15 01:28:48;;;;;;;29.40;15.00;;;;;;;;;;106897;1302;22072;-76
2022/11/15 01:31:35;;;;;;;24.80;12.10;;;;;;;;;;106680;1303;22036;-76
2022/11/15 01:34:22;;;;;;;26.70;12.90;;;;;;;;;;106689;1310;22238;-76
2022/11/15 01:37:09;;;;;;;25.70;13.20;;;;;;;;;;107001;1294;22195;-76
2022/11/15 01:39:54;;;;;;;32.30;15.50;;;;;;;;;;106718;1309;22398;-76
2022/11/15 01:42:40;;;;;;;33.00;15.00;;;;;;;;;;106707;1309;22263;-76
2022/11/15 01:45:26;;;;;;;30.10;13.80;;;;;;;;;;106661;1309;22748;-76
2022/11/15 01:48:12;;;;;;;30.30;13.10;;;;;;;;;;106665;1309;21927;-76
2022/11/15 01:50:58;;;;;;;27.20;13.30;;;;;;;;;;106594;1310;22162;-76
2022/11/15 01:53:45;;;;;;;28.10;14.10;;;;;;;;;;106695;1310;22094;-76
2022/11/15 01:56:36;;;;;;;25.10;12.50;;;;;;;;;;106634;1309;22079;-76
2022/11/15 01:59:22;;;;;;;27.90;13.10;;;;;;;;;;106721;1309;22332;-76
2022/11/15 02:02:07;;;;;;;24.10;12.60;;;;;;;;;;106711;1301;22065;-76
2022/11/15 02:04:53;;;;;;;26.40;12.80;;;;;;;;;;106638;1310;22077;-76
2022/11/15 02:07:39;;;;;;;26.50;13.30;;;;;;;;;;106577;1310;22042;-76
2022/11/15 02:10:26;;;;;;;24.10;12.50;;;;;;;;;;106559;1310;22711;-76
2022/11/15 02:13:14;;;;;;;26.30;13.40;;;;;;;;;;106668;1310;22809;-76
2022/11/15 02:16:09;;;;;;;26.20;14.10;;;;;;;;;;106642;1310;22096;-76
2022/11/15 02:41:11;;;;;;;28.40;14.20;;;;;;;;;;106927;1303;22106;-76
2022/11/15 02:44:01;;;;;;;26.80;13.90;;;;;;;;;;106614;1310;22077;-76
2022/11/15 02:47:14;;;;;;;28.70;15.40;;;;;;;;;;106567;1310;22088;-76
2022/11/15 02:50:08;;;;;;;33.50;16.00;;;;;;;;;;106551;1310;21947;-76
2022/11/15 02:52:56;;;;;;;31.70;15.10;;;;;;;;;;106596;1311;22039;-76
2022/11/15 02:55:48;;;;;;;29.90;14.10;;;;;;;;;;106613;1310;22129;-76
2022/11/15 02:58:58;;;;;;;31.40;14.60;;;;;;;;;;106562;1310;22056;-76
2022/11/15 03:01:56;;;;;;;27.60;14.80;;;;;;;;;;106510;1310;22176;-76
2022/11/15 03:04:55;;;;;;;26.40;13.30;;;;;;;;;;106637;1307;22034;-76
2022/11/15 03:07:52;;;;;;;26.10;12.30;;;;;;;;;;106612;1296;22136;-76
2022/11/15 03:11:01;;;;;;;24.50;11.70;;;;;;;;;;106598;1310;22731;-76
2022/11/15 03:14:09;;;;;;;26.90;13.40;;;;;;;;;;106657;1310;22118;-76
2022/11/15 03:22:32;;;;;;;25.80;13.40;;;;;;;;;;100102;1348;548194;-81
2022/11/15 03:25:19;;;;;;;27.60;12.60;;;;;;;;;;102421;1320;24357;-81
2022/11/15 03:28:05;;;;;;;25.60;12.90;;;;;;;;;;102433;1319;22534;-78
2022/11/15 03:30:51;;;;;;;24.90;12.10;;;;;;;;;;102329;1321;22486;-84
2022/11/15 03:33:36;;;;;;;24.60;12.40;;;;;;;;;;102459;1319;23944;-79
2022/11/15 03:36:22;;;;;;;27.20;13.30;;;;;;;;;;101791;1316;1297070;-82
2022/11/15 03:39:08;;;;;;;24.40;12.10;;;;;;;;;;102784;1316;22466;-82
2022/11/15 03:42:02;;;;;;;24.70;11.60;;;;;;;;;;102435;1316;25247;-80
2022/11/15 03:45:05;;;;;;;24.60;12.10;;;;;;;;;;102544;1316;24186;-81
2022/11/15 03:47:58;;;;;;;27.10;12.20;;;;;;;;;;102670;1309;22701;-78
2022/11/15 03:50:43;;;;;;;26.70;13.30;;;;;;;;;;102679;1317;22424;-77
2022/11/15 03:53:28;;;;;;;24.00;12.20;;;;;;;;;;102761;1314;24445;-80
2022/11/15 03:56:12;;;;;;;23.70;11.90;;;;;;;;;;102784;1316;24178;-83
2022/11/15 03:58:57;;;;;;;26.30;12.50;;;;;;;;;;102781;1316;22618;-80
2022/11/15 04:01:42;;;;;;;24.30;11.70;;;;;;;;;;102750;1316;24254;-77
2022/11/15 04:04:26;;;;;;;22.70;11.50;;;;;;;;;;103326;1310;25569;-77
2022/11/15 04:07:11;;;;;;;22.60;10.90;;;;;;;;;;103413;1310;22609;-84
2022/11/15 04:10:02;;;;;;;21.40;11.10;;;;;;;;;;103434;1307;24244;-84
2022/11/15 04:12:47;;;;;;;25.00;11.80;;;;;;;;;;103418;1307;25303;-78
2022/11/15 04:15:51;;;;;;;25.10;12.60;;;;;;;;;;103371;1309;22523;-81
2022/11/15 04:18:36;;;;;;;24.50;11.90;;;;;;;;;;103249;1308;24678;-78
2022/11/15 04:24:38;;;;;;;24.50;11.90;;;;;;;;;;103046;1310;22685;-82
2022/11/15 04:27:23;;;;;;;26.80;12.60;;;;;;;;;;103248;1310;22460;-78
2022/11/15 04:30:08;;;;;;;25.60;12.50;;;;;;;;;;103241;1310;23101;-78
2022/11/15 04:32:52;;;;;;;26.70;12.60;;;;;;;;;;103225;1310;24404;-84
2022/11/15 04:35:37;;;;;;;27.30;12.90;;;;;;;;;;103245;1309;22940;-80
2022/11/15 04:38:21;;;;;;;25.50;12.20;;;;;;;;;;103263;1310;22470;-84
2022/11/15 04:41:06;;;;;;;24.00;11.70;;;;;;;;;;103312;1310;25430;-81
2022/11/15 04:43:51;;;;;;;24.80;11.60;;;;;;;;;;103218;1310;25283;-78
2022/11/15 04:46:35;;;;;;;29.80;14.20;;;;;;;;;;103349;1309;24271;-78
2022/11/15 04:49:20;;;;;;;31.30;14.10;;;;;;;;;;103228;1310;24061;-78
2022/11/15 04:52:05;;;;;;;29.60;14.30;;;;;;;;;;103454;1309;22531;-81
2022/11/15 04:54:49;;;;;;;25.70;13.40;;;;;;;;;;103326;1307;22534;-84
2022/11/15 04:57:34;;;;;;;30.20;14.40;;;;;;;;;;103463;1306;22480;-79
2022/11/15 05:00:19;;;;;;;27.70;13.60;;;;;;;;;;103395;1307;22523;-81
2022/11/15 05:06:07;;;;;;;26.90;13.20;;;;;;;;;;103394;1307;22475;-82
2022/11/15 05:08:52;;;;;;;25.30;12.40;;;;;;;;;;103447;1307;22677;-84
2022/11/15 05:11:37;;;;;;;23.90;12.50;;;;;;;;;;103451;1306;23349;-80
2022/11/15 05:14:21;;;;;;;28.50;13.80;;;;;;;;;;103345;1307;24393;-84
2022/11/15 05:17:06;;;;;;;24.70;12.90;;;;;;;;;;103419;1307;25502;-81
2022/11/15 05:19:51;;;;;;;29.90;15.00;;;;;;;;;;103405;1308;25247;-80
2022/11/15 05:22:36;;;;;;;28.20;14.20;;;;;;;;;;103503;1307;24394;-77
2022/11/15 05:25:22;;;;;;;29.00;14.00;;;;;;;;;;103421;1307;22496;-78
2022/11/15 05:28:06;;;;;;;30.00;14.80;;;;;;;;;;103339;1307;22474;-82
2022/11/15 05:30:51;;;;;;;33.10;14.50;;;;;;;;;;103263;1307;24610;-77
2022/11/15 05:33:38;;;;;;;32.60;15.80;;;;;;;;;;103353;1301;24539;-80
2022/11/15 05:36:25;;;;;;;30.60;14.30;;;;;;;;;;103325;1307;25216;-83
2022/11/15 05:39:10;;;;;;;28.00;13.20;;;;;;;;;;103394;1307;24176;-80
2022/11/15 05:41:59;;;;;;;33.10;14.10;;;;;;;;;;103283;1309;25267;-80
2022/11/15 05:44:46;;;;;;;29.40;13.20;;;;;;;;;;103353;1301;22453;-78
2022/11/15 05:47:31;;;;;;;29.40;13.30;;;;;;;;;;103420;1308;22472;-81
2022/11/15 05:50:17;;;;;;;27.40;13.30;;;;;;;;;;103284;1306;25442;-78
2022/11/15 05:53:02;;;;;;;26.70;12.50;;;;;;;;;;103251;1306;24257;-79
2022/11/15 05:55:47;;;;;;;31.20;14.80;;;;;;;;;;103189;1309;22964;-79
2022/11/15 05:58:32;;;;;;;29.10;14.70;;;;;;;;;;103199;1306;24182;-78
2022/11/15 06:01:17;;;;;;;24.90;13.30;;;;;;;;;;103255;1306;23845;-80
2022/11/15 06:04:02;;;;;;;26.70;12.70;;;;;;;;;;103480;1306;22467;-85
2022/11/15 06:06:47;;;;;;;25.70;13.00;;;;;;;;;;103390;1309;22517;-80
2022/11/15 06:09:32;;;;;;;25.50;12.50;;;;;;;;;;103474;1306;25319;-81
2022/11/15 06:12:16;;;;;;;25.90;12.90;;;;;;;;;;103503;1307;24285;-82
2022/11/15 06:15:01;;;;;;;26.50;13.40;;;;;;;;;;103477;1308;22454;-77
2022/11/15 06:17:45;;;;;;;28.90;13.80;;;;;;;;;;103462;1302;22819;-78
2022/11/15 06:20:30;;;;;;;27.70;12.60;;;;;;;;;;103534;1307;22465;-82
2022/11/15 06:23:15;;;;;;;25.60;13.00;;;;;;;;;;103516;1307;22493;-81
2022/11/15 06:26:00;;;;;;;25.20;13.40;;;;;;;;;;103325;1307;24003;-78
2022/11/15 06:28:45;;;;;;;27.20;13.00;;;;;;;;;;103394;1309;22468;-85
2022/11/15 06:31:30;;;;;;;29.90;13.20;;;;;;;;;;103496;1309;22490;-82
2022/11/15 06:34:14;;;;;;;26.40;13.10;;;;;;;;;;103468;1309;22855;-78
2022/11/15 06:36:59;;;;;;;27.80;13.60;;;;;;;;;;103431;1307;22442;-82
2022/11/15 06:39:44;;;;;;;26.30;13.60;;;;;;;;;;103391;1306;24036;-78
2022/11/15 06:42:28;;;;;;;29.60;14.30;;;;;;;;;;103493;1307;22589;-82
2022/11/15 06:45:13;;;;;;;30.60;14.70;;;;;;;;;;103522;1307;24241;-78
2022/11/15 06:47:58;;;;;;;29.20;14.20;;;;;;;;;;103396;1306;22478;-82
2022/11/15 06:50:49;;;;;;;31.20;14.30;;;;;;;;;;103466;1306;25413;-77
2022/11/15 06:53:34;;;;;;;25.70;13.10;;;;;;;;;;103500;1306;22589;-80
2022/11/15 06:56:19;;;;;;;26.00;13.60;;;;;;;;;;103448;1299;24344;-85
2022/11/15 06:59:03;;;;;;;27.30;14.20;;;;;;;;;;103469;1308;25433;-78
2022/11/15 07:01:49;;;;;;;26.10;13.60;;;;;;;;;;103445;1306;25601;-79
2022/11/15 07:04:34;;;;;;;29.30;13.50;;;;;;;;;;103347;1308;24309;-80
2022/11/15 07:07:19;;;;;;;31.50;13.80;;;;;;;;;;103425;1306;25389;-77
2022/11/15 07:10:04;;;;;;;34.00;15.50;;;;;;;;;;103423;1306;25353;-78
2022/11/15 07:12:48;;;;;;;33.60;17.10;;;;;;;;;;103479;1307;22589;-82
2022/11/15 07:15:33;;;;;;;31.80;16.20;;;;;;;;;;103534;1306;24395;-80
2022/11/15 07:18:18;;;;;;;32.30;16.00;;;;;;;;;;103466;1306;25506;-82
2022/11/15 07:21:03;;;;;;;31.90;15.60;;;;;;;;;;103492;1306;22467;-82
2022/11/15 07:23:48;;;;;;;31.80;16.50;;;;;;;;;;103578;1300;22711;-78
2022/11/15 07:26:32;;;;;;;26.20;12.50;;;;;;;;;;103409;1306;22459;-78
2022/11/15 07:29:17;;;;;;;29.30;13.30;;;;;;;;;;103434;1306;22471;-81
2022/11/15 07:32:02;;;;;;;29.20;13.60;;;;;;;;;;103209;1306;21735;-78
2022/11/15 07:34:47;;;;;;;28.10;13.70;;;;;;;;;;103434;1306;22460;-78
2022/11/15 07:37:32;;;;;;;26.30;13.60;;;;;;;;;;103462;1306;22462;-78
2022/11/15 07:40:16;;;;;;;28.30;13.40;;;;;;;;;;103474;1306;23029;-80
2022/11/15 07:43:02;;;;;;;31.40;14.80;;;;;;;;;;103461;1307;22581;-82
2022/11/15 07:45:47;;;;;;;27.70;14.00;;;;;;;;;;103484;1302;22697;-78
2022/11/15 07:48:32;;;;;;;24.50;12.20;;;;;;;;;;103486;1306;22589;-81
2022/11/15 07:51:16;;;;;;;24.30;13.10;;;;;;;;;;103507;1306;25343;-80
2022/11/15 07:54:01;;;;;;;29.60;13.50;;;;;;;;;;103471;1306;22481;-81
2022/11/15 07:56:45;;;;;;;27.30;13.40;;;;;;;;;;103460;1306;22471;-79
2022/11/15 07:59:30;;;;;;;28.90;14.00;;;;;;;;;;103355;1306;22480;-84
2022/11/15 08:02:17;;;;;;;30.00;13.40;;;;;;;;;;103377;1306;22739;-81
2022/11/15 08:05:02;;;;;;;28.00;13.70;;;;;;;;;;103317;1306;22468;-82
2022/11/15 08:07:46;;;;;;;27.00;12.80;;;;;;;;;;103188;1306;25219;-78
2022/11/15 08:10:32;;;;;;;33.40;13.90;;;;;;;;;;103402;1306;22593;-84
2022/11/15 08:13:17;;;;;;;25.30;13.50;;;;;;;;;;103412;1306;22596;-81
2022/11/15 08:16:02;;;;;;;25.30;13.60;;;;;;;;;;103443;1306;22474;-80
2022/11/15 08:18:47;;;;;;;26.40;15.50;;;;;;;;;;103448;1294;24430;-83
2022/11/15 08:21:32;;;;;;;24.70;13.90;;;;;;;;;;103582;1306;25317;-82
2022/11/15 08:24:17;;;;;;;24.40;12.20;;;;;;;;;;103422;1306;22476;-82
2022/11/15 08:27:01;;;;;;;26.10;13.30;;;;;;;;;;106855;1306;22242;-77
2022/11/15 08:29:47;;;;;;;24.50;13.20;;;;;;;;;;106868;1306;22070;-77
2022/11/15 08:32:32;;;;;;;25.80;14.10;;;;;;;;;;106889;1306;22135;-77
2022/11/15 08:35:17;;;;;;;28.20;15.10;;;;;;;;;;106880;1306;22342;-77
2022/11/15 08:38:01;;;;;;;29.60;15.40;;;;;;;;;;106902;1306;22102;-77
2022/11/15 08:40:46;;;;;;;29.10;14.80;;;;;;;;;;106802;1307;22100;-77
2022/11/15 08:43:31;;;;;;;26.70;14.00;;;;;;;;;;106872;1306;22098;-77
2022/11/15 08:46:15;;;;;;;29.30;16.50;;;;;;;;;;106746;1306;22049;-77
2022/11/15 08:49:00;;;;;;;24.50;14.80;;;;;;;;;;106880;1305;22053;-77
2022/11/15 08:51:44;;;;;;;28.60;16.40;;;;;;;;;;106757;1306;22163;-77
2022/11/15 08:54:29;;;;;;;25.70;13.50;;;;;;;;;;106875;1306;22121;-76
2022/11/15 08:57:13;;;;;;;24.80;13.20;;;;;;;;;;106868;1301;22145;-77
2022/11/15 08:59:57;;;;;;;24.90;13.40;;;;;;;;;;106815;1306;22995;-77
2022/11/15 09:02:42;;;;;;;22.60;12.60;;;;;;;;;;107152;1299;22670;-76
2022/11/15 09:05:27;;;;;;;25.00;13.30;;;;;;;;;;106879;1304;22137;-77
2022/11/15 09:08:12;;;;;;;22.40;13.30;;;;;;;;;;106852;1292;22162;-77
2022/11/15 09:10:57;;;;;;;22.60;13.00;;;;;;;;;;106846;1306;22721;-77
2022/11/15 09:13:41;;;;;;;22.20;12.70;;;;;;;;;;106859;1301;22066;-77
2022/11/15 09:16:26;;;;;;;22.50;12.50;;;;;;;;;;106876;1306;22111;-77
2022/11/15 09:19:11;;;;;;;24.50;13.10;;;;;;;;;;106764;1307;22053;-76
2022/11/15 09:21:55;;;;;;;23.40;13.00;;;;;;;;;;106751;1307;22852;-78
2022/11/15 09:24:40;;;;;;;25.80;12.30;;;;;;;;;;106878;1307;22130;-77
2022/11/15 09:27:28;;;;;;;18.70;11.70;;;;;;;;;;106723;1304;22091;-77
2022/11/15 09:30:13;;;;;;;24.60;12.70;;;;;;;;;;106943;1297;22133;-76
2022/11/15 09:36:51;;;;;;;22.30;12.50;;;;;;;;;;106883;1307;22243;-77
2022/11/15 09:39:36;;;;;;;24.70;13.90;;;;;;;;;;106867;1307;22058;-78
2022/11/15 09:42:26;;;;;;;21.80;12.00;;;;;;;;;;106747;1307;22147;-78
2022/11/15 09:45:14;;;;;;;20.90;11.70;;;;;;;;;;106783;1307;22105;-77
2022/11/15 09:48:08;;;;;;;24.60;13.50;;;;;;;;;;106855;1307;22087;-78
2022/11/15 09:50:46;;;;;;;24.90;13.10;;;;;;;;;;106772;1308;22078;-76
2022/11/15 09:53:14;;;;;;;23.40;13.70;;;;;;;;;;106833;1307;22176;-76
2022/11/15 09:56:00;;;;;;;23.00;13.40;;;;;;;;;;106767;1309;22744;-77
2022/11/15 09:59:01;;;;;;;26.80;15.40;;;;;;;;;;106742;1308;22683;-77
2022/11/15 10:01:37;;;;;;;24.00;14.00;;;;;;;;;;106492;1312;22077;-79
2022/11/15 10:04:03;;;;;;;21.90;13.50;;;;;;;;;;106684;1305;22074;-77
2022/11/15 10:06:31;;;;;;;22.40;13.10;;;;;;;;;;106499;1311;22049;-79
2022/11/15 10:09:00;;;;;;;27.40;12.80;;;;;;;;;;106290;1313;22025;-78
2022/11/15 10:11:28;;;;;;;21.40;13.00;;;;;;;;;;106461;1312;22420;-78
2022/11/15 10:13:57;;;;;;;22.30;12.80;;;;;;;;;;106275;1313;22119;-78
2022/11/15 10:16:24;;;;;;;23.10;12.90;;;;;;;;;;106361;1312;22250;-79
2022/11/15 10:19:06;;;;;;;23.60;11.50;;;;;;;;;;106271;1312;22203;-77
2022/11/15 10:21:38;;;;;;;29.60;14.20;;;;;;;;;;106403;1299;22827;-77
2022/11/15 10:24:12;;;;;;;21.60;12.30;;;;;;;;;;106257;1312;22146;-78
2022/11/15 10:26:45;;;;;;;21.30;12.50;;;;;;;;;;106405;1312;22108;-78
2022/11/15 10:29:17;;;;;;;21.30;12.20;;;;;;;;;;106408;1306;22117;-77
2022/11/15 10:31:44;;;;;;;25.30;13.00;;;;;;;;;;106449;1299;22019;-79
2022/11/15 10:34:15;;;;;;;23.20;13.70;;;;;;;;;;106421;1313;22458;-79
2022/11/15 10:36:45;;;;;;;25.90;13.90;;;;;;;;;;106647;1309;21953;-79
2022/11/15 10:39:13;;;;;;;24.30;13.00;;;;;;;;;;106653;1309;22081;-79
2022/11/15 10:41:41;;;;;;;22.60;12.60;;;;;;;;;;106718;1309;22874;-78
2022/11/15 10:44:18;;;;;;;22.40;12.80;;;;;;;;;;106658;1309;22050;-78
2022/11/15 10:46:50;;;;;;;22.20;12.60;;;;;;;;;;106681;1302;22632;-79
2022/11/15 10:49:17;;;;;;;19.00;11.80;;;;;;;;;;106588;1309;22080;-78
2022/11/15 10:51:44;;;;;;;21.10;11.50;;;;;;;;;;106821;1307;22089;-78
2022/11/15 10:54:12;;;;;;;20.90;12.30;;;;;;;;;;106913;1306;22072;-79
2022/11/15 10:56:39;;;;;;;20.50;12.40;;;;;;;;;;106906;1295;21994;-78
2022/11/15 10:59:05;;;;;;;20.20;12.40;;;;;;;;;;106749;1307;22125;-79
2022/11/15 11:01:44;;;;;;;21.40;12.20;;;;;;;;;;106840;1306;22025;-78
2022/11/15 11:04:14;;;;;;;23.20;12.80;;;;;;;;;;106592;1309;22466;-78
2022/11/15 11:06:48;;;;;;;23.30;13.20;;;;;;;;;;106862;1309;22745;-79
2022/11/15 11:09:34;;;;;;;22.00;13.00;;;;;;;;;;106700;1309;22884;-78
2022/11/15 11:12:02;;;;;;;22.90;12.70;;;;;;;;;;106884;1284;22774;-79
2022/11/15 11:14:31;;;;;;;21.70;12.80;;;;;;;;;;106681;1306;22840;-77
2022/11/15 11:17:16;;;;;;;21.10;12.10;;;;;;;;;;106658;1307;22089;-79
2022/11/15 11:19:48;;;;;;;22.00;11.60;;;;;;;;;;106885;1307;22061;-78
2022/11/15 11:22:20;;;;;;;20.30;11.50;;;;;;;;;;106742;1301;22018;-78
2022/11/15 11:24:55;;;;;;;18.30;10.90;;;;;;;;;;106624;1304;21976;-78
2022/11/15 11:27:34;;;;;;;20.70;12.70;;;;;;;;;;106762;1309;22644;-79
2022/11/15 11:30:09;;;;;;;20.00;11.50;;;;;;;;;;106640;1310;22062;-78
2022/11/15 11:32:35;;;;;;;24.00;12.70;;;;;;;;;;106588;1308;21898;-78
2022/11/15 11:35:17;;;;;;;22.00;12.70;;;;;;;;;;106738;1299;22078;-78
2022/11/15 11:37:49;;;;;;;19.30;11.80;;;;;;;;;;106672;1309;22067;-78
2022/11/15 11:40:22;;;;;;;20.10;11.60;;;;;;;;;;106704;1307;23020;-79
2022/11/15 11:42:48;;;;;;;19.40;11.60;;;;;;;;;;106740;1295;22823;-77
2022/11/15 11:45:42;;;;;;;19.30;11.00;;;;;;;;;;106676;1290;22686;-77
2022/11/15 11:48:13;;;;;;;19.80;11.10;;;;;;;;;;106099;1316;22158;-78
2022/11/15 11:50:40;;;;;;;16.90;10.10;;;;;;;;;;105939;1318;22828;-77
2022/11/15 11:53:32;;;;;;;20.10;11.10;;;;;;;;;;105968;1302;22899;-79
2022/11/15 11:56:02;;;;;;;23.00;12.30;;;;;;;;;;106156;1315;22139;-79
2022/11/15 11:58:41;;;;;;;21.20;10.90;;;;;;;;;;105966;1303;21804;-78
2022/11/15 12:01:16;;;;;;;16.80;10.10;;;;;;;;;;106201;1315;22115;-79
2022/11/15 12:03:56;;;;;;;18.70;10.60;;;;;;;;;;106170;1315;22182;-80
2022/11/15 12:06:42;;;;;;;17.20;9.90;;;;;;;;;;106009;1315;22141;-79
2022/11/15 12:09:20;;;;;;;19.40;11.10;;;;;;;;;;106047;1315;22146;-78
2022/11/15 12:11:58;;;;;;;18.50;11.10;;;;;;;;;;106218;1315;22134;-78
2022/11/15 12:14:28;;;;;;;17.80;10.90;;;;;;;;;;106019;1315;22877;-78
2022/11/15 12:16:55;;;;;;;18.80;11.60;;;;;;;;;;106185;1309;22171;-78
2022/11/15 12:19:21;;;;;;;18.50;11.80;;;;;;;;;;105965;1317;22842;-78
2022/11/15 12:21:48;;;;;;;19.00;10.90;;;;;;;;;;106486;1308;22429;-79
2022/11/15 12:24:22;;;;;;;19.00;12.20;;;;;;;;;;106018;1310;22273;-78
2022/11/15 12:27:12;;;;;;;19.70;12.60;;;;;;;;;;106536;1303;22165;-78
2022/11/15 12:29:40;;;;;;;21.30;12.80;;;;;;;;;;106513;1309;22055;-79
2022/11/15 12:32:16;;;;;;;22.50;12.90;;;;;;;;;;106950;1284;22701;-78
2022/11/15 12:34:45;;;;;;;23.50;13.50;;;;;;;;;;106675;1309;22853;-78
2022/11/15 12:37:30;;;;;;;21.10;13.20;;;;;;;;;;106634;1309;22053;-78
2022/11/15 12:40:04;;;;;;;22.40;13.00;;;;;;;;;;106580;1312;22108;-78
2022/11/15 12:42:30;;;;;;;24.20;13.90;;;;;;;;;;106584;1310;22101;-78
2022/11/15 12:44:58;;;;;;;23.20;13.20;;;;;;;;;;106694;1304;22078;-79
2022/11/15 12:47:26;;;;;;;21.30;13.90;;;;;;;;;;106643;1309;21964;-78
2022/11/15 12:49:52;;;;;;;25.10;14.00;;;;;;;;;;106673;1309;22058;-79
2022/11/15 12:52:19;;;;;;;27.40;13.90;;;;;;;;;;106604;1310;22768;-77
2022/11/15 12:54:50;;;;;;;27.30;14.50;;;;;;;;;;106631;1309;22585;-78
2022/11/15 12:57:16;;;;;;;24.80;14.90;;;;;;;;;;106638;1309;22058;-78
2022/11/15 12:59:52;;;;;;;27.90;15.50;;;;;;;;;;106704;1309;22151;-79
2022/11/15 13:02:23;;;;;;;25.60;14.80;;;;;;;;;;106630;1310;22624;-78
2022/11/15 13:04:51;;;;;;;28.40;15.60;;;;;;;;;;106638;1309;22119;-78
2022/11/15 13:07:35;;;;;;;30.30;14.20;;;;;;;;;;106711;1309;22057;-77
2022/11/15 13:10:21;;;;;;;24.30;14.60;;;;;;;;;;106633;1310;22734;-79
2022/11/15 13:12:49;;;;;;;41.20;15.40;;;;;;;;;;106704;1309;21944;-79
2022/11/15 13:15:36;;;;;;;34.30;15.70;;;;;;;;;;106557;1310;22234;-78
2022/11/15 13:18:32;;;;;;;27.20;15.80;;;;;;;;;;106766;1300;22048;-78
2022/11/15 13:20:59;;;;;;;26.50;15.90;;;;;;;;;;106403;1312;22781;-78
2022/11/15 13:23:25;;;;;;;25.20;15.20;;;;;;;;;;106375;1313;22167;-77
2022/11/15 13:25:55;;;;;;;25.70;16.30;;;;;;;;;;106453;1311;22051;-79
2022/11/15 13:28:28;;;;;;;31.70;19.20;;;;;;;;;;106529;1310;22061;-78
2022/11/15 13:30:56;;;;;;;31.40;18.30;;;;;;;;;;106590;1306;21965;-79
2022/11/15 13:33:24;;;;;;;35.20;19.50;;;;;;;;;;106713;1300;22073;-78
2022/11/15 13:35:56;;;;;;;35.60;19.80;;;;;;;;;;106410;1312;22095;-79
2022/11/15 13:38:31;;;;;;;38.90;21.90;;;;;;;;;;106867;1303;21968;-79
2022/11/15 13:41:10;;;;;;;41.60;24.30;;;;;;;;;;106533;1312;22099;-79
2022/11/15 13:43:37;;;;;;;42.20;24.10;;;;;;;;;;106258;1312;22803;-79
2022/11/15 13:46:18;;;;;;;41.00;23.90;;;;;;;;;;106478;1311;22096;-78
2022/11/15 13:48:46;;;;;;;37.50;20.80;;;;;;;;;;106508;1311;22052;-78
2022/11/15 13:51:19;;;;;;;35.80;19.00;;;;;;;;;;106457;1305;22073;-78
2022/11/15 13:53:47;;;;;;;35.40;20.50;;;;;;;;;;106543;1312;22051;-77
2022/11/15 13:56:16;;;;;;;36.80;21.10;;;;;;;;;;106474;1306;22209;-77
2022/11/15 13:58:43;;;;;;;39.20;22.00;;;;;;;;;;106505;1311;22096;-78
2022/11/15 14:01:14;;;;;;;38.10;20.40;;;;;;;;;;106491;1310;22118;-78
2022/11/15 14:04:01;;;;;;;41.70;23.60;;;;;;;;;;106640;1310;22744;-78
2022/11/15 14:06:30;;;;;;;49.50;25.80;;;;;;;;;;106594;1310;22945;-78
2022/11/15 14:09:08;;;;;;;48.20;26.00;;;;;;;;;;106426;1312;22113;-78
2022/11/15 14:11:35;;;;;;;47.80;24.10;;;;;;;;;;106684;1305;22137;-78
2022/11/15 14:14:22;;;;;;;45.60;23.10;;;;;;;;;;106482;1312;22100;-78
2022/11/15 14:16:52;;;;;;;44.30;22.70;;;;;;;;;;106595;1311;22057;-78
2022/11/15 14:19:25;;;;;;;45.40;21.30;;;;;;;;;;106597;1312;22090;-79
2022/11/15 14:22:28;;;;;;;43.20;22.40;;;;;;;;;;106533;1312;22724;-78
2022/11/15 14:25:07;;;;;;;42.30;22.40;;;;;;;;;;106078;1318;22048;-78
2022/11/15 14:27:34;;;;;;;43.60;24.50;;;;;;;;;;105922;1318;22024;-77
2022/11/15 14:30:02;;;;;;;57.60;26.70;;;;;;;;;;105950;1316;22143;-77
2022/11/15 14:32:44;;;;;;;49.80;25.80;;;;;;;;;;106065;1314;22152;-77
2022/11/15 14:35:15;;;;;;;50.00;24.70;;;;;;;;;;105881;1318;22185;-77
2022/11/15 14:37:41;;;;;;;55.70;26.20;;;;;;;;;;105824;1313;22211;-77
2022/11/15 14:40:12;;;;;;;49.80;26.50;;;;;;;;;;105941;1310;22165;-77
2022/11/15 14:42:39;;;;;;;48.70;27.80;;;;;;;;;;105946;1318;22884;-77
2022/11/15 14:45:14;;;;;;;48.50;26.50;;;;;;;;;;105961;1318;22096;-78
2022/11/15 14:47:42;;;;;;;50.00;26.80;;;;;;;;;;105852;1317;22005;-78
2022/11/15 14:50:16;;;;;;;53.10;26.80;;;;;;;;;;105977;1318;22133;-78
2022/11/15 14:52:44;;;;;;;54.80;29.50;;;;;;;;;;105928;1318;22193;-78
2022/11/15 14:55:11;;;;;;;57.10;28.90;;;;;;;;;;105763;1318;22820;-77
2022/11/15 14:57:37;;;;;;;62.80;29.90;;;;;;;;;;105945;1318;22117;-78
2022/11/15 15:00:05;;;;;;;62.90;31.20;;;;;;;;;;106496;1312;22064;-78
2022/11/15 15:02:41;;;;;;;55.30;28.00;;;;;;;;;;106572;1301;22650;-78
2022/11/15 15:05:17;;;;;;;52.20;28.10;;;;;;;;;;106581;1311;22675;-78
2022/11/15 15:07:43;;;;;;;57.10;28.30;;;;;;;;;;106513;1312;22473;-78
2022/11/15 15:10:11;;;;;;;57.40;28.70;;;;;;;;;;106528;1306;22092;-78
2022/11/15 15:12:38;;;;;;;65.70;32.70;;;;;;;;;;106536;1312;22145;-78
2022/11/15 15:15:05;;;;;;;66.50;33.20;;;;;;;;;;106370;1312;22644;-77
2022/11/15 15:17:33;;;;;;;69.30;32.80;;;;;;;;;;106439;1311;22670;-78
2022/11/15 15:20:02;;;;;;;61.10;31.30;;;;;;;;;;106460;1307;21908;-78
2022/11/15 15:22:30;;;;;;;65.00;33.00;;;;;;;;;;106386;1296;22079;-77
2022/11/15 15:24:59;;;;;;;59.90;31.70;;;;;;;;;;106453;1312;22056;-78
2022/11/15 15:27:27;;;;;;;68.20;31.50;;;;;;;;;;106456;1312;22128;-78
2022/11/15 15:29:57;;;;;;;75.50;32.60;;;;;;;;;;106527;1313;22840;-78
2022/11/15 15:32:25;;;;;;;77.60;29.80;;;;;;;;;;106616;1311;22301;-77
2022/11/15 15:34:53;;;;;;;72.10;30.00;;;;;;;;;;105229;1312;1781520;-78
2022/11/15 15:37:24;;;;;;;66.00;28.90;;;;;;;;;;106538;1312;22376;-78
2022/11/15 15:39:54;;;;;;;65.50;29.70;;;;;;;;;;106326;1312;22038;-78
2022/11/15 15:42:22;;;;;;;64.70;31.20;;;;;;;;;;106389;1307;22287;-78
2022/11/15 15:44:52;;;;;;;73.80;31.70;;;;;;;;;;106332;1297;22111;-78
2022/11/15 15:47:24;;;;;;;66.60;30.70;;;;;;;;;;106464;1307;21620;-78
2022/11/15 15:49:53;;;;;;;68.70;32.00;;;;;;;;;;106270;1312;22052;-77
2022/11/15 15:52:21;;;;;;;69.70;32.30;;;;;;;;;;106470;1312;22129;-78
2022/11/15 15:54:50;;;;;;;71.50;31.50;;;;;;;;;;106439;1298;22783;-77
2022/11/15 15:57:19;;;;;;;71.20;32.60;;;;;;;;;;106558;1312;22106;-77